Time;durP1;ratioP1;P1;durP2;ratioP2;P2;SDS_P1;SDS_P2;PMS_P1;PMS_P2;Temp;Humidity;BMP_temperature;BMP_pressure;BME280_temperature;BME280_humidity;BME280_pressure;Samples;Min_cycle;Max_cycle;Signal;HPM_P1;HPM_P2
2023/12/12 00:00:45;;;;;;;12.50;3.10;;;;;;;;;;5019833;28;100244;-64
2023/12/12 00:03:12;;;;;;;16.05;3.33;;;;;;;;;;5016231;28;99572;-64
2023/12/12 00:05:38;;;;;;;13.75;3.30;;;;;;;;;;5020263;28;97741;-64
2023/12/12 00:08:04;;;;;;;11.77;3.13;;;;;;;;;;5022389;28;99481;-64
2023/12/12 00:10:31;;;;;;;16.38;4.20;;;;;;;;;;5013333;28;98847;-64
2023/12/12 00:12:57;;;;;;;15.40;3.30;;;;;;;;;;5018681;28;100367;-69
2023/12/12 00:15:24;;;;;;;17.80;3.20;;;;;;;;;;5011505;28;100474;-64
2023/12/12 00:17:50;;;;;;;15.35;2.83;;;;;;;;;;5018763;28;99037;-64
2023/12/12 00:20:16;;;;;;;13.40;3.13;;;;;;;;;;5018129;28;99213;-64
2023/12/12 00:22:43;;;;;;;15.93;3.80;;;;;;;;;;5015880;28;100533;-64
2023/12/12 00:25:09;;;;;;;17.95;3.58;;;;;;;;;;5018623;28;98606;-68
2023/12/12 00:27:35;;;;;;;16.40;4.22;;;;;;;;;;5018298;28;99175;-64
2023/12/12 00:30:02;;;;;;;14.75;3.15;;;;;;;;;;5017257;28;98878;-66
2023/12/12 00:32:28;;;;;;;15.75;3.85;;;;;;;;;;5011823;28;98618;-64
2023/12/12 00:34:54;;;;;;;10.23;2.75;;;;;;;;;;5010880;27;99411;-64
2023/12/12 00:37:21;;;;;;;16.25;3.75;;;;;;;;;;5017357;28;99345;-61
2023/12/12 00:39:47;;;;;;;13.35;2.92;;;;;;;;;;5012918;27;99892;-61
2023/12/12 00:42:13;;;;;;;20.17;3.08;;;;;;;;;;5016557;28;99607;-61
2023/12/12 00:44:40;;;;;;;11.02;2.80;;;;;;;;;;5016417;28;98922;-61
2023/12/12 00:47:06;;;;;;;13.38;3.08;;;;;;;;;;5018361;28;99233;-61
2023/12/12 00:49:33;;;;;;;13.75;3.13;;;;;;;;;;5019978;27;99550;-61
2023/12/12 00:52:01;;;;;;;16.35;3.85;;;;;;;;;;5018310;27;98559;-61
2023/12/12 00:54:27;;;;;;;18.40;3.63;;;;;;;;;;5014250;28;98771;-61
2023/12/12 00:56:53;;;;;;;17.25;3.60;;;;;;;;;;5019196;27;98676;-62
2023/12/12 00:59:19;;;;;;;10.25;3.08;;;;;;;;;;5014591;28;99892;-61
2023/12/12 01:01:46;;;;;;;16.58;3.30;;;;;;;;;;5014659;27;101314;-61
2023/12/12 01:04:12;;;;;;;15.20;3.58;;;;;;;;;;5017265;28;98510;-64
2023/12/12 01:06:39;;;;;;;13.32;3.03;;;;;;;;;;5014148;27;99201;-68
2023/12/12 01:09:06;;;;;;;9.68;3.17;;;;;;;;;;5011023;28;99525;-61
2023/12/12 01:11:32;;;;;;;18.02;3.45;;;;;;;;;;5018069;28;98430;-61
2023/12/12 01:13:58;;;;;;;11.60;3.08;;;;;;;;;;5021299;27;99519;-61
2023/12/12 01:16:24;;;;;;;9.93;3.63;;;;;;;;;;5017476;27;98641;-61
2023/12/12 01:18:54;;;;;;;20.83;3.65;;;;;;;;;;5018672;28;100167;-63
2023/12/12 01:21:20;;;;;;;20.13;3.50;;;;;;;;;;5014227;28;99652;-61
2023/12/12 01:23:47;;;;;;;14.35;3.72;;;;;;;;;;5013681;28;101023;-61
2023/12/12 01:26:14;;;;;;;8.48;3.60;;;;;;;;;;5010480;28;99234;-62
2023/12/12 01:28:40;;;;;;;12.60;3.53;;;;;;;;;;5018430;27;99619;-61
2023/12/12 01:31:07;;;;;;;8.05;3.40;;;;;;;;;;5012405;27;101307;-61
2023/12/12 01:33:33;;;;;;;7.60;3.17;;;;;;;;;;5018042;28;100139;-61
2023/12/12 01:35:59;;;;;;;12.40;3.67;;;;;;;;;;5016474;28;99478;-61
2023/12/12 01:38:26;;;;;;;6.93;2.83;;;;;;;;;;5017389;28;98962;-61
2023/12/12 01:40:53;;;;;;;15.95;3.60;;;;;;;;;;5015969;28;99450;-61
2023/12/12 01:43:23;;;;;;;12.02;3.33;;;;;;;;;;5019410;27;97774;-61
2023/12/12 01:45:49;;;;;;;8.57;3.17;;;;;;;;;;5017795;27;98640;-62
2023/12/12 01:48:16;;;;;;;14.75;3.65;;;;;;;;;;5016245;28;99559;-61
2023/12/12 01:50:43;;;;;;;16.15;3.83;;;;;;;;;;5013235;28;99828;-61
2023/12/12 01:53:09;;;;;;;20.20;4.20;;;;;;;;;;5014968;27;99868;-61
2023/12/12 01:55:36;;;;;;;19.42;4.63;;;;;;;;;;5017870;28;99515;-61
2023/12/12 01:58:02;;;;;;;12.55;4.10;;;;;;;;;;5019736;28;98479;-61
2023/12/12 02:00:29;;;;;;;18.15;4.20;;;;;;;;;;5012880;28;99454;-61
2023/12/12 02:02:55;;;;;;;18.80;4.10;;;;;;;;;;5014437;27;98843;-61
2023/12/12 02:05:23;;;;;;;14.18;3.90;;;;;;;;;;5015182;27;99183;-61
2023/12/12 02:07:51;;;;;;;13.63;4.03;;;;;;;;;;5008392;28;98903;-61
2023/12/12 02:10:17;;;;;;;10.88;3.88;;;;;;;;;;5007226;28;98478;-61
2023/12/12 02:12:43;;;;;;;12.43;3.47;;;;;;;;;;5012683;28;99272;-61
2023/12/12 02:15:10;;;;;;;13.70;4.10;;;;;;;;;;5014622;28;100279;-61
2023/12/12 02:17:36;;;;;;;10.30;3.33;;;;;;;;;;5018976;27;98455;-61
2023/12/12 02:20:03;;;;;;;9.77;4.13;;;;;;;;;;5011147;28;99493;-61
2023/12/12 02:22:29;;;;;;;13.13;3.72;;;;;;;;;;5012709;28;98566;-63
2023/12/12 02:24:56;;;;;;;7.50;3.55;;;;;;;;;;5015542;27;99211;-61
2023/12/12 02:27:22;;;;;;;9.95;3.67;;;;;;;;;;5017204;28;100501;-61
2023/12/12 02:29:49;;;;;;;8.13;3.83;;;;;;;;;;5015781;28;98526;-61
2023/12/12 02:32:16;;;;;;;9.07;3.72;;;;;;;;;;5016919;28;99144;-61
2023/12/12 02:34:43;;;;;;;11.02;4.15;;;;;;;;;;5019213;28;100622;-61
2023/12/12 02:37:09;;;;;;;12.82;3.55;;;;;;;;;;5015775;28;98525;-61
2023/12/12 02:39:36;;;;;;;12.85;4.18;;;;;;;;;;5021662;27;99338;-61
2023/12/12 02:42:02;;;;;;;16.88;4.65;;;;;;;;;;5021016;28;98542;-61
2023/12/12 02:44:28;;;;;;;10.50;4.50;;;;;;;;;;5022215;28;99780;-61
2023/12/12 02:46:55;;;;;;;13.65;4.63;;;;;;;;;;5018212;28;100491;-61
2023/12/12 02:49:22;;;;;;;21.58;4.35;;;;;;;;;;5020742;27;98506;-61
2023/12/12 02:51:48;;;;;;;16.77;3.80;;;;;;;;;;5021354;28;99312;-61
2023/12/12 02:54:15;;;;;;;15.20;5.25;;;;;;;;;;5018076;28;99626;-61
2023/12/12 02:56:41;;;;;;;11.38;4.32;;;;;;;;;;5020053;28;97861;-61
2023/12/12 02:59:07;;;;;;;10.45;4.75;;;;;;;;;;5019756;28;98905;-61
2023/12/12 03:01:34;;;;;;;11.68;4.88;;;;;;;;;;5022979;28;100460;-61
2023/12/12 03:04:00;;;;;;;20.20;4.22;;;;;;;;;;5020256;27;99602;-61
2023/12/12 03:06:27;;;;;;;9.55;4.22;;;;;;;;;;5017912;28;100505;-61
2023/12/12 03:08:53;;;;;;;11.02;4.72;;;;;;;;;;5018562;27;98504;-61
2023/12/12 03:11:19;;;;;;;10.43;5.00;;;;;;;;;;5019959;28;100145;-61
2023/12/12 03:13:46;;;;;;;11.27;4.93;;;;;;;;;;5015206;28;100529;-61
2023/12/12 03:16:12;;;;;;;14.98;6.07;;;;;;;;;;5020440;27;98558;-61
2023/12/12 03:18:38;;;;;;;15.43;6.80;;;;;;;;;;5014221;27;99180;-62
2023/12/12 03:21:05;;;;;;;19.23;6.82;;;;;;;;;;5017586;27;98665;-61
2023/12/12 03:23:31;;;;;;;19.80;6.63;;;;;;;;;;5021458;27;98565;-61
2023/12/12 03:26:01;;;;;;;18.77;7.47;;;;;;;;;;5019498;28;100557;-61
2023/12/12 03:28:27;;;;;;;13.37;7.00;;;;;;;;;;5021217;28;99422;-61
2023/12/12 03:30:54;;;;;;;23.92;7.75;;;;;;;;;;5018944;28;100797;-62
2023/12/12 03:33:20;;;;;;;26.27;7.60;;;;;;;;;;5016631;27;99449;-61
2023/12/12 03:35:47;;;;;;;14.23;6.63;;;;;;;;;;5017477;28;98608;-61
2023/12/12 03:38:13;;;;;;;14.32;7.20;;;;;;;;;;5020103;28;99176;-61
2023/12/12 03:40:40;;;;;;;21.10;7.45;;;;;;;;;;5018158;28;99521;-61
2023/12/12 03:43:07;;;;;;;18.75;7.07;;;;;;;;;;5017934;28;98443;-61
2023/12/12 03:45:33;;;;;;;14.30;7.25;;;;;;;;;;5013856;28;100454;-61
2023/12/12 03:48:00;;;;;;;19.30;7.38;;;;;;;;;;5021986;28;98588;-61
2023/12/12 03:50:26;;;;;;;14.10;7.25;;;;;;;;;;5019538;28;100277;-61
2023/12/12 03:52:53;;;;;;;15.95;7.20;;;;;;;;;;5018974;28;100549;-61
2023/12/12 03:55:19;;;;;;;16.90;7.00;;;;;;;;;;5016451;28;98942;-61
2023/12/12 03:57:45;;;;;;;18.15;7.47;;;;;;;;;;5020093;27;99392;-61
2023/12/12 04:00:12;;;;;;;18.13;8.20;;;;;;;;;;5013674;28;98469;-61
2023/12/12 04:02:39;;;;;;;20.20;8.32;;;;;;;;;;5015400;28;98520;-61
2023/12/12 04:05:09;;;;;;;18.17;7.72;;;;;;;;;;5024236;28;100250;-61
2023/12/12 04:07:36;;;;;;;18.93;9.17;;;;;;;;;;5015909;28;98425;-61
2023/12/12 04:10:03;;;;;;;15.70;7.60;;;;;;;;;;5021551;27;99285;-61
2023/12/12 04:12:30;;;;;;;20.42;8.63;;;;;;;;;;5016750;27;99470;-61
2023/12/12 04:14:56;;;;;;;20.58;9.18;;;;;;;;;;5015028;27;98551;-61
2023/12/12 04:17:23;;;;;;;26.48;9.82;;;;;;;;;;5015426;28;100220;-61
2023/12/12 04:19:49;;;;;;;27.45;9.75;;;;;;;;;;5020520;27;99457;-61
2023/12/12 04:22:15;;;;;;;24.83;9.32;;;;;;;;;;5014283;28;98781;-62
2023/12/12 04:24:42;;;;;;;30.25;10.23;;;;;;;;;;5020934;27;99018;-61
2023/12/12 04:27:08;;;;;;;21.23;9.82;;;;;;;;;;5023860;28;99485;-61
2023/12/12 04:29:34;;;;;;;24.63;10.05;;;;;;;;;;5012346;28;101169;-61
2023/12/12 04:32:01;;;;;;;29.50;10.50;;;;;;;;;;5016811;28;99538;-61
2023/12/12 04:34:30;;;;;;;29.20;10.48;;;;;;;;;;5016380;28;97772;-62
2023/12/12 04:36:56;;;;;;;21.92;10.00;;;;;;;;;;5017171;28;98673;-61
2023/12/12 04:39:23;;;;;;;27.02;9.10;;;;;;;;;;5016422;28;98624;-62
2023/12/12 04:41:50;;;;;;;21.15;10.35;;;;;;;;;;5017418;28;99427;-61
2023/12/12 04:44:16;;;;;;;27.77;10.70;;;;;;;;;;5016927;27;99909;-61
2023/12/12 04:46:43;;;;;;;28.60;10.40;;;;;;;;;;5019638;27;99479;-61
2023/12/12 04:49:09;;;;;;;29.30;11.02;;;;;;;;;;5018484;28;98726;-61
2023/12/12 04:51:36;;;;;;;26.65;10.30;;;;;;;;;;5018651;28;99691;-61
2023/12/12 04:54:03;;;;;;;25.85;11.10;;;;;;;;;;5013201;27;100038;-61
2023/12/12 04:56:29;;;;;;;30.90;11.48;;;;;;;;;;5013259;28;100388;-61
2023/12/12 04:58:55;;;;;;;26.67;10.45;;;;;;;;;;5015897;27;98859;-61
2023/12/12 05:01:22;;;;;;;42.03;11.13;;;;;;;;;;5017846;27;98514;-61
2023/12/12 05:03:49;;;;;;;38.33;11.70;;;;;;;;;;5018051;27;99333;-61
2023/12/12 05:06:15;;;;;;;31.20;10.13;;;;;;;;;;5015476;28;100236;-61
2023/12/12 05:08:41;;;;;;;26.83;10.55;;;;;;;;;;5016127;27;98682;-61
2023/12/12 05:11:10;;;;;;;30.05;10.48;;;;;;;;;;5022530;27;99199;-61
2023/12/12 05:13:37;;;;;;;32.85;10.52;;;;;;;;;;5014151;28;98508;-61
2023/12/12 05:16:03;;;;;;;29.90;10.00;;;;;;;;;;5019153;27;99333;-61
2023/12/12 05:18:36;;;;;;;35.78;9.65;;;;;;;;;;5015357;28;100651;-65
2023/12/12 05:21:02;;;;;;;24.88;9.43;;;;;;;;;;5018040;27;98540;-64
2023/12/12 05:23:29;;;;;;;26.20;8.63;;;;;;;;;;5019659;28;99184;-64
2023/12/12 05:25:55;;;;;;;26.25;9.70;;;;;;;;;;5015268;28;99484;-63
2023/12/12 05:28:23;;;;;;;26.05;9.00;;;;;;;;;;5017146;28;98555;-63
2023/12/12 05:30:49;;;;;;;18.40;8.65;;;;;;;;;;5015862;27;99308;-64
2023/12/12 05:33:16;;;;;;;20.65;8.90;;;;;;;;;;5016869;28;99512;-65
2023/12/12 05:35:42;;;;;;;23.20;8.93;;;;;;;;;;5017734;27;99236;-64
2023/12/12 05:38:09;;;;;;;18.75;8.20;;;;;;;;;;5020229;27;99441;-64
2023/12/12 05:40:35;;;;;;;26.13;8.65;;;;;;;;;;5015625;27;98902;-63
2023/12/12 05:43:02;;;;;;;21.83;8.75;;;;;;;;;;5013658;28;99244;-63
2023/12/12 05:45:28;;;;;;;19.48;9.13;;;;;;;;;;5018867;28;100617;-64
2023/12/12 05:47:55;;;;;;;19.75;9.00;;;;;;;;;;5016636;28;97862;-64
2023/12/12 05:50:21;;;;;;;18.30;8.07;;;;;;;;;;5017374;27;98492;-63
2023/12/12 05:52:50;;;;;;;21.83;8.82;;;;;;;;;;5018354;28;99624;-64
2023/12/12 05:55:17;;;;;;;21.90;9.98;;;;;;;;;;5016911;28;100573;-63
2023/12/12 05:57:43;;;;;;;26.10;10.73;;;;;;;;;;5013524;28;99957;-64
2023/12/12 06:00:10;;;;;;;27.77;10.02;;;;;;;;;;5019213;27;98526;-64
2023/12/12 06:02:37;;;;;;;37.63;9.93;;;;;;;;;;5017476;28;99206;-64
2023/12/12 06:05:07;;;;;;;30.15;10.73;;;;;;;;;;5014864;27;99469;-64
2023/12/12 06:07:34;;;;;;;26.80;10.23;;;;;;;;;;5017863;27;98635;-63
2023/12/12 06:10:01;;;;;;;33.83;11.35;;;;;;;;;;5018533;28;100416;-64
2023/12/12 06:12:27;;;;;;;34.40;11.45;;;;;;;;;;5016716;28;100006;-64
2023/12/12 06:14:54;;;;;;;34.17;10.98;;;;;;;;;;5026041;27;98522;-63
2023/12/12 06:17:21;;;;;;;40.25;11.40;;;;;;;;;;5021152;27;99606;-64
2023/12/12 06:19:47;;;;;;;40.25;11.77;;;;;;;;;;5020882;28;99622;-63
2023/12/12 06:22:14;;;;;;;42.83;11.85;;;;;;;;;;5016149;28;101199;-64
2023/12/12 06:24:40;;;;;;;27.05;10.43;;;;;;;;;;5019308;28;100438;-63
2023/12/12 06:27:07;;;;;;;28.75;10.25;;;;;;;;;;5018927;28;98710;-63
2023/12/12 06:29:33;;;;;;;35.95;10.52;;;;;;;;;;5020340;28;99229;-61
2023/12/12 06:31:59;;;;;;;31.60;11.00;;;;;;;;;;5015579;27;100580;-61
2023/12/12 06:34:26;;;;;;;43.22;11.68;;;;;;;;;;5014227;27;98521;-61
2023/12/12 06:36:52;;;;;;;34.70;10.65;;;;;;;;;;5023549;28;98060;-61
2023/12/12 06:39:19;;;;;;;35.13;10.30;;;;;;;;;;5016614;28;98762;-61
2023/12/12 06:41:45;;;;;;;38.53;11.82;;;;;;;;;;5022930;27;100211;-61
2023/12/12 06:44:12;;;;;;;46.83;11.10;;;;;;;;;;5017505;28;100356;-61
2023/12/12 06:46:40;;;;;;;41.67;11.85;;;;;;;;;;5017200;28;98715;-61
2023/12/12 06:49:06;;;;;;;29.67;10.07;;;;;;;;;;5017964;27;99239;-61
2023/12/12 06:51:33;;;;;;;46.70;10.57;;;;;;;;;;5020741;28;99663;-61
2023/12/12 06:53:59;;;;;;;43.05;10.05;;;;;;;;;;5012725;27;98521;-61
2023/12/12 06:56:26;;;;;;;46.20;13.35;;;;;;;;;;5020669;27;99250;-61
2023/12/12 06:58:52;;;;;;;45.63;11.38;;;;;;;;;;5024438;28;99788;-64
2023/12/12 07:01:19;;;;;;;40.80;9.93;;;;;;;;;;5015837;28;99210;-62
2023/12/12 07:03:45;;;;;;;34.45;10.35;;;;;;;;;;5018510;28;100621;-61
2023/12/12 07:06:12;;;;;;;40.85;11.35;;;;;;;;;;5014676;28;98555;-61
2023/12/12 07:08:38;;;;;;;41.00;10.57;;;;;;;;;;5019056;28;99318;-61
2023/12/12 07:11:05;;;;;;;36.63;10.98;;;;;;;;;;5013044;27;99580;-61
2023/12/12 07:13:31;;;;;;;43.65;9.73;;;;;;;;;;5019558;27;98560;-61
2023/12/12 07:15:58;;;;;;;46.08;10.75;;;;;;;;;;5021698;28;99190;-61
2023/12/12 07:18:24;;;;;;;41.95;11.05;;;;;;;;;;5018959;28;99650;-61
2023/12/12 07:20:51;;;;;;;36.95;11.30;;;;;;;;;;5019294;27;98599;-61
2023/12/12 07:23:17;;;;;;;37.00;9.85;;;;;;;;;;5021092;27;99487;-61
2023/12/12 07:25:45;;;;;;;41.97;10.20;;;;;;;;;;5018498;28;97824;-61
2023/12/12 07:28:11;;;;;;;46.95;10.02;;;;;;;;;;5021946;27;98473;-61
2023/12/12 07:30:38;;;;;;;35.42;11.25;;;;;;;;;;5012918;28;100884;-61
2023/12/12 07:33:04;;;;;;;36.30;9.80;;;;;;;;;;5018981;27;99311;-61
2023/12/12 07:35:31;;;;;;;35.50;10.00;;;;;;;;;;5011633;28;100962;-61
2023/12/12 07:37:57;;;;;;;29.05;9.30;;;;;;;;;;5019104;27;100462;-61
2023/12/12 07:40:24;;;;;;;32.88;9.48;;;;;;;;;;5017828;28;98619;-64
2023/12/12 07:42:50;;;;;;;34.03;9.25;;;;;;;;;;5017787;28;100248;-62
2023/12/12 07:45:18;;;;;;;29.48;9.35;;;;;;;;;;5018841;28;98419;-62
2023/12/12 07:47:44;;;;;;;27.23;9.07;;;;;;;;;;5012463;28;99554;-62
2023/12/12 07:50:11;;;;;;;34.45;9.20;;;;;;;;;;5021594;27;98832;-62
2023/12/12 07:52:38;;;;;;;27.38;9.68;;;;;;;;;;5019830;27;98657;-63
2023/12/12 07:55:05;;;;;;;30.70;9.80;;;;;;;;;;5021293;27;100259;-62
2023/12/12 07:57:32;;;;;;;25.15;9.77;;;;;;;;;;5016371;27;100265;-62
2023/12/12 07:59:59;;;;;;;33.45;11.45;;;;;;;;;;5020593;28;98491;-62
2023/12/12 08:02:26;;;;;;;31.50;10.48;;;;;;;;;;5016935;27;100363;-62
2023/12/12 08:04:52;;;;;;;26.73;10.05;;;;;;;;;;5017906;27;99435;-62
2023/12/12 08:07:18;;;;;;;27.88;9.25;;;;;;;;;;5015415;28;100283;-62
2023/12/12 08:09:45;;;;;;;33.17;10.30;;;;;;;;;;5012054;28;99533;-63
2023/12/12 08:12:11;;;;;;;34.53;8.52;;;;;;;;;;5019964;28;98604;-61
2023/12/12 08:14:37;;;;;;;26.67;10.40;;;;;;;;;;5021041;28;100323;-62
2023/12/12 08:17:08;;;;;;;28.00;9.85;;;;;;;;;;5015551;27;99480;-62
2023/12/12 08:19:35;;;;;;;31.75;10.43;;;;;;;;;;5013513;28;98530;-62
2023/12/12 08:22:02;;;;;;;27.95;8.73;;;;;;;;;;5020368;28;99518;-62
2023/12/12 08:24:28;;;;;;;34.95;9.68;;;;;;;;;;5013131;28;99545;-63
2023/12/12 08:26:54;;;;;;;27.77;9.68;;;;;;;;;;5015733;28;100264;-63
2023/12/12 08:29:21;;;;;;;30.45;10.45;;;;;;;;;;5021411;28;100536;-62
2023/12/12 08:31:47;;;;;;;28.98;9.88;;;;;;;;;;5018530;27;98708;-63
2023/12/12 08:34:14;;;;;;;34.85;10.90;;;;;;;;;;5020607;27;100275;-63
2023/12/12 08:36:40;;;;;;;42.33;10.40;;;;;;;;;;5017701;27;99497;-62
2023/12/12 08:39:07;;;;;;;37.03;9.95;;;;;;;;;;5016579;28;97845;-62
2023/12/12 08:41:36;;;;;;;39.88;10.15;;;;;;;;;;5021518;28;99489;-61
2023/12/12 08:44:03;;;;;;;44.92;10.93;;;;;;;;;;5015219;27;99476;-63
2023/12/12 08:46:29;;;;;;;44.65;9.30;;;;;;;;;;5020374;28;99432;-62
2023/12/12 08:48:56;;;;;;;47.67;11.38;;;;;;;;;;5016677;27;99654;-60
2023/12/12 08:51:23;;;;;;;40.13;10.88;;;;;;;;;;5016937;28;100074;-60
2023/12/12 08:53:51;;;;;;;40.83;10.75;;;;;;;;;;5016787;28;99646;-60
2023/12/12 08:56:18;;;;;;;42.88;9.68;;;;;;;;;;5012625;28;99489;-60
2023/12/12 08:58:46;;;;;;;38.50;10.15;;;;;;;;;;5017135;28;99924;-60
2023/12/12 09:01:15;;;;;;;44.83;10.27;;;;;;;;;;5020367;28;100172;-61
2023/12/12 09:03:42;;;;;;;34.53;10.05;;;;;;;;;;5016845;27;99862;-61
2023/12/12 09:06:09;;;;;;;43.13;10.65;;;;;;;;;;5016078;27;98911;-61
2023/12/12 09:08:35;;;;;;;44.78;10.80;;;;;;;;;;5018443;27;100402;-61
2023/12/12 09:11:02;;;;;;;47.60;10.15;;;;;;;;;;5018587;27;99258;-62
2023/12/12 09:13:28;;;;;;;39.80;10.13;;;;;;;;;;5018591;28;99911;-60
2023/12/12 09:15:55;;;;;;;37.42;9.55;;;;;;;;;;5016255;28;99932;-60
2023/12/12 09:18:21;;;;;;;35.80;8.95;;;;;;;;;;5027729;28;98542;-60
2023/12/12 09:20:48;;;;;;;45.38;9.40;;;;;;;;;;5008936;28;99192;-61
2023/12/12 09:23:16;;;;;;;36.47;9.02;;;;;;;;;;5016364;27;99725;-61
2023/12/12 09:25:42;;;;;;;38.50;9.52;;;;;;;;;;5020142;28;98865;-61
2023/12/12 09:28:09;;;;;;;41.00;8.57;;;;;;;;;;5013346;28;100640;-60
2023/12/12 09:30:35;;;;;;;39.60;9.25;;;;;;;;;;5021195;28;100516;-61
2023/12/12 09:33:02;;;;;;;50.45;9.32;;;;;;;;;;5018133;27;99240;-61
2023/12/12 09:35:29;;;;;;;33.80;8.60;;;;;;;;;;5010332;28;100373;-61
2023/12/12 09:37:55;;;;;;;34.95;8.43;;;;;;;;;;5016355;28;98654;-61
2023/12/12 09:40:21;;;;;;;38.85;8.00;;;;;;;;;;5015981;28;99643;-61
2023/12/12 09:42:48;;;;;;;42.38;7.07;;;;;;;;;;5015641;28;99477;-61
2023/12/12 09:45:15;;;;;;;26.02;6.32;;;;;;;;;;5016970;28;99058;-62
2023/12/12 09:47:42;;;;;;;34.60;8.43;;;;;;;;;;5011997;28;99128;-63
2023/12/12 09:50:12;;;;;;;35.47;7.97;;;;;;;;;;5014148;28;99619;-62
2023/12/12 09:52:39;;;;;;;37.87;6.60;;;;;;;;;;5019986;28;98244;-62
2023/12/12 09:55:06;;;;;;;41.90;8.00;;;;;;;;;;5015824;28;98625;-63
2023/12/12 09:57:33;;;;;;;30.55;6.40;;;;;;;;;;5016569;27;98773;-63
2023/12/12 10:00:00;;;;;;;36.13;7.13;;;;;;;;;;5013450;28;99180;-63
2023/12/12 10:02:27;;;;;;;28.80;6.05;;;;;;;;;;5013807;28;100599;-62
2023/12/12 10:04:54;;;;;;;34.30;5.90;;;;;;;;;;5014113;28;98515;-61
2023/12/12 10:07:24;;;;;;;36.38;6.25;;;;;;;;;;5018868;27;98979;-61
2023/12/12 10:09:50;;;;;;;41.35;6.15;;;;;;;;;;5017980;28;100635;-61
2023/12/12 10:12:17;;;;;;;35.50;6.95;;;;;;;;;;5014916;27;98976;-61
2023/12/12 10:14:47;;;;;;;35.33;6.85;;;;;;;;;;5019406;27;99200;-61
2023/12/12 10:17:14;;;;;;;32.50;6.40;;;;;;;;;;5016237;28;97892;-61
2023/12/12 10:19:41;;;;;;;31.35;6.70;;;;;;;;;;5016295;28;99632;-61
2023/12/12 10:22:08;;;;;;;30.95;7.15;;;;;;;;;;5017568;28;100783;-62
2023/12/12 10:24:35;;;;;;;40.00;6.78;;;;;;;;;;5015127;28;99293;-61
2023/12/12 10:27:02;;;;;;;39.92;7.78;;;;;;;;;;5014873;27;99930;-61
2023/12/12 10:29:29;;;;;;;27.10;7.03;;;;;;;;;;5018111;27;99392;-61
2023/12/12 10:31:57;;;;;;;38.95;8.25;;;;;;;;;;5016720;28;98496;-61
2023/12/12 10:34:27;;;;;;;37.13;7.57;;;;;;;;;;5021124;28;99212;-61
2023/12/12 10:36:54;;;;;;;38.42;8.40;;;;;;;;;;5011591;28;98634;-61
2023/12/12 10:39:20;;;;;;;38.70;7.53;;;;;;;;;;5012557;28;100361;-61
2023/12/12 10:41:55;;;;;;;33.38;8.25;;;;;;;;;;5019673;28;99716;-65
2023/12/12 10:44:27;;;;;;;39.03;8.57;;;;;;;;;;5016721;28;98510;-63
2023/12/12 10:46:54;;;;;;;38.28;9.15;;;;;;;;;;5007909;28;99161;-61
2023/12/12 10:49:20;;;;;;;38.10;8.07;;;;;;;;;;5015273;27;100236;-61
2023/12/12 10:51:47;;;;;;;25.50;6.60;;;;;;;;;;5012594;28;98603;-61
2023/12/12 10:54:15;;;;;;;45.58;8.20;;;;;;;;;;5016356;28;99182;-61
2023/12/12 10:56:46;;;;;;;39.30;8.52;;;;;;;;;;5022653;28;100797;-60
2023/12/12 10:59:14;;;;;;;;;;;;;;;;;;5015060;27;99468;-61
2023/12/12 11:02:00;;;;;;;29.17;7.30;;;;;;;;;;5017658;28;99113;-61
2023/12/12 11:04:27;;;;;;;28.42;7.68;;;;;;;;;;5018201;28;98593;-62
2023/12/12 11:06:54;;;;;;;29.20;6.40;;;;;;;;;;5020562;27;99049;-65
2023/12/12 11:09:20;;;;;;;36.05;9.05;;;;;;;;;;5018074;28;99407;-64
2023/12/12 11:11:48;;;;;;;31.33;7.47;;;;;;;;;;5020679;28;98877;-66
2023/12/12 11:14:16;;;;;;;30.42;6.93;;;;;;;;;;5019059;27;99370;-66
2023/12/12 11:16:43;;;;;;;29.55;6.53;;;;;;;;;;5017722;28;99571;-65
2023/12/12 11:19:17;;;;;;;34.80;7.10;;;;;;;;;;5010748;28;101556;-66
2023/12/12 11:21:44;;;;;;;36.72;7.35;;;;;;;;;;5016510;28;100588;-68
2023/12/12 11:24:11;;;;;;;35.33;8.15;;;;;;;;;;5020578;28;98632;-64
2023/12/12 11:26:39;;;;;;;32.83;6.45;;;;;;;;;;5020685;28;99311;-64
2023/12/12 11:29:06;;;;;;;42.22;7.03;;;;;;;;;;5016615;27;99560;-64
2023/12/12 11:31:35;;;;;;;30.33;6.97;;;;;;;;;;5018619;28;98244;-63
2023/12/12 11:34:05;;;;;;;37.92;7.15;;;;;;;;;;5016185;28;99563;-64
2023/12/12 11:36:51;;;;;;;40.83;6.75;;;;;;;;;;5016612;28;99512;-64
2023/12/12 11:39:18;;;;;;;28.67;6.70;;;;;;;;;;5020696;28;99657;-67
2023/12/12 11:41:45;;;;;;;33.40;6.82;;;;;;;;;;5016927;27;100195;-67
2023/12/12 11:44:11;;;;;;;31.27;6.28;;;;;;;;;;5018405;28;99955;-67
2023/12/12 11:46:37;;;;;;;22.60;6.28;;;;;;;;;;5015209;28;100247;-69
2023/12/12 11:49:17;;;;;;;28.83;6.93;;;;;;;;;;5018794;28;100488;-67
2023/12/12 11:51:47;;;;;;;29.00;6.63;;;;;;;;;;5013929;28;99642;-67
2023/12/12 11:54:23;;;;;;;29.30;6.93;;;;;;;;;;5020076;27;99399;-67
2023/12/12 11:56:57;;;;;;;25.85;6.25;;;;;;;;;;5021217;28;99091;-67
2023/12/12 11:59:24;;;;;;;29.60;6.97;;;;;;;;;;5013539;28;98666;-67
2023/12/12 12:01:51;;;;;;;23.75;6.70;;;;;;;;;;5015052;28;99593;-66
2023/12/12 12:04:17;;;;;;;31.33;5.95;;;;;;;;;;5021138;28;101247;-67
2023/12/12 12:06:44;;;;;;;21.75;5.53;;;;;;;;;;5019548;27;100728;-67
2023/12/12 12:09:15;;;;;;;32.92;5.82;;;;;;;;;;5013498;28;100513;-67
2023/12/12 12:11:46;;;;;;;30.13;6.15;;;;;;;;;;5016435;27;98537;-67
2023/12/12 12:14:13;;;;;;;34.75;6.85;;;;;;;;;;5011665;28;99107;-67
2023/12/12 12:16:40;;;;;;;19.73;5.85;;;;;;;;;;5017217;27;99479;-68
2023/12/12 12:19:26;;;;;;;21.85;6.05;;;;;;;;;;5018181;28;98642;-66
2023/12/12 12:21:52;;;;;;;21.55;6.32;;;;;;;;;;5018556;27;100117;-65
2023/12/12 12:24:19;;;;;;;23.77;6.00;;;;;;;;;;5018564;27;100549;-65
2023/12/12 12:26:46;;;;;;;24.27;6.40;;;;;;;;;;5021573;28;99108;-65
2023/12/12 12:29:12;;;;;;;27.45;5.90;;;;;;;;;;5010917;28;100304;-65
2023/12/12 12:31:38;;;;;;;29.65;6.00;;;;;;;;;;5016853;28;98623;-65
2023/12/12 12:34:18;;;;;;;27.58;7.03;;;;;;;;;;5017209;28;100177;-65
2023/12/12 12:36:48;;;;;;;29.27;6.20;;;;;;;;;;5016763;27;99928;-66
2023/12/12 12:39:18;;;;;;;30.10;6.88;;;;;;;;;;5018308;27;98507;-65
2023/12/12 12:41:47;;;;;;;34.40;6.45;;;;;;;;;;5004620;28;101780;-66
2023/12/12 12:44:14;;;;;;;29.15;6.55;;;;;;;;;;5010577;28;99459;-66
2023/12/12 12:46:47;;;;;;;19.25;6.20;;;;;;;;;;5021825;28;97801;-66
2023/12/12 12:49:13;;;;;;;23.33;6.68;;;;;;;;;;5014957;28;99795;-66
2023/12/12 12:51:40;;;;;;;25.45;5.70;;;;;;;;;;5017872;28;98683;-66
2023/12/12 12:54:06;;;;;;;24.15;5.60;;;;;;;;;;5016866;28;99196;-66
2023/12/12 12:56:33;;;;;;;30.05;6.90;;;;;;;;;;5017477;28;99410;-66
2023/12/12 12:58:59;;;;;;;25.40;5.80;;;;;;;;;;5020649;27;99546;-66
2023/12/12 13:01:25;;;;;;;31.35;7.60;;;;;;;;;;5018841;28;100237;-66
2023/12/12 13:03:52;;;;;;;18.55;6.00;;;;;;;;;;5017177;28;99544;-64
2023/12/12 13:06:18;;;;;;;19.40;5.43;;;;;;;;;;5019734;28;98642;-64
2023/12/12 13:08:46;;;;;;;16.40;5.03;;;;;;;;;;5018784;27;99247;-64
2023/12/12 13:11:12;;;;;;;20.40;5.05;;;;;;;;;;5015222;27;97932;-64
2023/12/12 13:13:41;;;;;;;18.38;4.90;;;;;;;;;;5013964;28;98856;-64
2023/12/12 13:16:07;;;;;;;13.68;4.40;;;;;;;;;;5018894;27;99536;-64
2023/12/12 13:18:34;;;;;;;30.00;5.03;;;;;;;;;;5015437;27;99326;-65
2023/12/12 13:21:00;;;;;;;14.10;4.85;;;;;;;;;;5019651;27;100289;-64
2023/12/12 13:23:26;;;;;;;45.65;4.85;;;;;;;;;;5013170;28;100494;-67
2023/12/12 13:25:54;;;;;;;17.80;4.47;;;;;;;;;;5017975;27;98606;-67
2023/12/12 13:28:20;;;;;;;18.20;4.47;;;;;;;;;;5016524;28;99213;-68
2023/12/12 13:30:47;;;;;;;12.95;3.70;;;;;;;;;;5023292;28;99652;-67
2023/12/12 13:33:13;;;;;;;13.20;4.28;;;;;;;;;;5017253;28;100223;-68
2023/12/12 13:35:40;;;;;;;16.45;4.70;;;;;;;;;;5017426;28;98944;-68
2023/12/12 13:38:06;;;;;;;13.55;4.57;;;;;;;;;;5013607;27;99629;-68
2023/12/12 13:40:33;;;;;;;10.98;4.40;;;;;;;;;;5017023;27;99295;-67
2023/12/12 13:43:00;;;;;;;11.43;4.70;;;;;;;;;;5015644;27;100423;-68
2023/12/12 13:45:26;;;;;;;13.90;5.18;;;;;;;;;;5016374;27;98989;-68
2023/12/12 13:47:52;;;;;;;11.70;4.43;;;;;;;;;;5016845;28;100664;-67
2023/12/12 13:50:19;;;;;;;10.45;4.95;;;;;;;;;;5018236;28;100567;-67
2023/12/12 13:52:46;;;;;;;14.88;5.28;;;;;;;;;;5018685;27;98521;-67
2023/12/12 13:55:12;;;;;;;11.85;4.78;;;;;;;;;;5019100;28;100545;-67
2023/12/12 13:57:38;;;;;;;17.25;5.25;;;;;;;;;;5017994;28;98620;-67
2023/12/12 14:00:08;;;;;;;18.38;5.20;;;;;;;;;;5015058;27;99153;-67
2023/12/12 14:02:34;;;;;;;16.55;5.38;;;;;;;;;;5019833;27;99472;-67
2023/12/12 14:05:01;;;;;;;11.75;5.60;;;;;;;;;;5017740;28;98513;-67
2023/12/12 14:07:29;;;;;;;16.23;5.78;;;;;;;;;;5014286;27;99276;-67
2023/12/12 14:09:56;;;;;;;18.05;5.28;;;;;;;;;;5016422;28;99318;-73
2023/12/12 14:12:22;;;;;;;15.82;5.68;;;;;;;;;;5015560;28;98635;-67
2023/12/12 14:14:49;;;;;;;15.68;5.47;;;;;;;;;;5023911;27;100152;-67
2023/12/12 14:17:15;;;;;;;19.73;6.43;;;;;;;;;;5016845;28;98500;-67
2023/12/12 14:19:42;;;;;;;14.13;6.22;;;;;;;;;;5007354;28;99165;-66
2023/12/12 14:22:09;;;;;;;19.50;6.38;;;;;;;;;;5016121;28;99641;-66